sensor_id;sensor_type;location;lat;lon;timestamp;pressure;altitude;pressure_sealevel;temperature;humidity
69247;BME280;56358;56.328;43.992;2023-06-14T00:01:45;101172.66;;;12.17;62.63
69247;BME280;56358;56.328;43.992;2023-06-14T00:03:48;101169.97;;;12.17;63.18
69247;BME280;56358;56.328;43.992;2023-06-14T00:05:49;101172.56;;;12.19;62.94
69247;BME280;56358;56.328;43.992;2023-06-14T00:07:50;101152.47;;;12.12;63.43
69247;BME280;56358;56.328;43.992;2023-06-14T00:09:53;101162.91;;;12.16;63.41
69247;BME280;56358;56.328;43.992;2023-06-14T00:11:54;101158.63;;;12.14;63.32
69247;BME280;56358;56.328;43.992;2023-06-14T00:13:55;101117.63;;;11.86;63.28
69247;BME280;56358;56.328;43.992;2023-06-14T00:15:56;101165.06;;;12.11;63.11
69247;BME280;56358;56.328;43.992;2023-06-14T00:17:57;101167.97;;;12.08;62.85
69247;BME280;56358;56.328;43.992;2023-06-14T00:20:02;101152.63;;;11.97;63.20
69247;BME280;56358;56.328;43.992;2023-06-14T00:22:05;101175.63;;;12.01;63.57
69247;BME280;56358;56.328;43.992;2023-06-14T00:24:07;101159.84;;;11.97;65.48
69247;BME280;56358;56.328;43.992;2023-06-14T00:26:08;101161.78;;;11.95;65.87
69247;BME280;56358;56.328;43.992;2023-06-14T00:28:08;101162.81;;;11.92;66.10
69247;BME280;56358;56.328;43.992;2023-06-14T00:30:10;101167.47;;;11.90;66.49
69247;BME280;56358;56.328;43.992;2023-06-14T00:32:11;101174.75;;;11.88;66.60
69247;BME280;56358;56.328;43.992;2023-06-14T00:34:11;101177.44;;;11.88;66.52
69247;BME280;56358;56.328;43.992;2023-06-14T00:36:12;101172.19;;;11.86;66.65
69247;BME280;56358;56.328;43.992;2023-06-14T00:38:13;101178.66;;;11.84;67.24
69247;BME280;56358;56.328;43.992;2023-06-14T00:40:14;101134.75;;;11.59;67.05
69247;BME280;56358;56.328;43.992;2023-06-14T00:42:33;101169.88;;;11.69;67.27
69247;BME280;56358;56.328;43.992;2023-06-14T00:44:34;101180.81;;;11.79;66.77
69247;BME280;56358;56.328;43.992;2023-06-14T00:46:34;101172.25;;;11.73;66.70
69247;BME280;56358;56.328;43.992;2023-06-14T00:48:36;101179.31;;;11.74;66.32
69247;BME280;56358;56.328;43.992;2023-06-14T00:50:38;101164.25;;;11.72;67.07
69247;BME280;56358;56.328;43.992;2023-06-14T00:52:39;101167.19;;;11.69;67.42
69247;BME280;56358;56.328;43.992;2023-06-14T00:54:40;101172.56;;;11.69;67.44
69247;BME280;56358;56.328;43.992;2023-06-14T00:56:43;101158.16;;;11.57;67.84
69247;BME280;56358;56.328;43.992;2023-06-14T00:58:44;101160.75;;;11.58;68.13
69247;BME280;56358;56.328;43.992;2023-06-14T01:00:45;101163.13;;;11.63;68.31
69247;BME280;56358;56.328;43.992;2023-06-14T01:02:46;101172.25;;;11.61;68.27
69247;BME280;56358;56.328;43.992;2023-06-14T01:04:48;101156.78;;;11.51;68.65
69247;BME280;56358;56.328;43.992;2023-06-14T01:14:20;101156.66;;;11.66;66.78
69247;BME280;56358;56.328;43.992;2023-06-14T01:16:22;101167.28;;;11.67;66.85
69247;BME280;56358;56.328;43.992;2023-06-14T01:18:23;101150.00;;;11.58;66.67
69247;BME280;56358;56.328;43.992;2023-06-14T01:20:28;101156.66;;;11.66;66.55
69247;BME280;56358;56.328;43.992;2023-06-14T01:22:30;101159.13;;;11.69;66.88
69247;BME280;56358;56.328;43.992;2023-06-14T01:24:31;101155.47;;;11.70;66.97
69247;BME280;56358;56.328;43.992;2023-06-14T01:26:33;101163.41;;;11.71;67.15
69247;BME280;56358;56.328;43.992;2023-06-14T01:28:35;101164.91;;;11.76;67.04
69247;BME280;56358;56.328;43.992;2023-06-14T01:30:41;101168.25;;;11.79;67.14
69247;BME280;56358;56.328;43.992;2023-06-14T01:32:47;101154.47;;;11.84;67.17
69247;BME280;56358;56.328;43.992;2023-06-14T01:34:47;101162.09;;;11.90;66.94
69247;BME280;56358;56.328;43.992;2023-06-14T01:36:49;101156.31;;;11.96;67.14
69247;BME280;56358;56.328;43.992;2023-06-14T01:38:51;101154.88;;;12.03;66.58
69247;BME280;56358;56.328;43.992;2023-06-14T01:40:55;101163.13;;;12.13;66.47
69247;BME280;56358;56.328;43.992;2023-06-14T01:42:57;101098.47;;;11.90;66.29
69247;BME280;56358;56.328;43.992;2023-06-14T01:44:58;101142.53;;;12.25;65.86
69247;BME280;56358;56.328;43.992;2023-06-14T01:47:00;101154.22;;;12.37;65.87
69247;BME280;56358;56.328;43.992;2023-06-14T01:49:01;101143.00;;;12.43;65.35
69247;BME280;56358;56.328;43.992;2023-06-14T01:51:02;101147.34;;;12.57;65.10
69247;BME280;56358;56.328;43.992;2023-06-14T01:53:06;101146.75;;;12.65;64.91
69247;BME280;56358;56.328;43.992;2023-06-14T01:55:08;101149.59;;;12.74;64.45
69247;BME280;56358;56.328;43.992;2023-06-14T01:57:09;101120.47;;;12.68;64.27
69247;BME280;56358;56.328;43.992;2023-06-14T01:59:10;101127.50;;;12.82;63.97
69247;BME280;56358;56.328;43.992;2023-06-14T02:01:12;101140.94;;;12.94;64.00
69247;BME280;56358;56.328;43.992;2023-06-14T02:03:13;101142.66;;;12.95;63.53
69247;BME280;56358;56.328;43.992;2023-06-14T02:05:14;101150.03;;;13.04;62.54
69247;BME280;56358;56.328;43.992;2023-06-14T02:07:16;101147.59;;;13.12;61.22
69247;BME280;56358;56.328;43.992;2023-06-14T02:09:17;101149.69;;;13.20;60.18
69247;BME280;56358;56.328;43.992;2023-06-14T02:11:18;101147.13;;;13.30;58.86
69247;BME280;56358;56.328;43.992;2023-06-14T02:13:19;101153.28;;;13.43;58.13
69247;BME280;56358;56.328;43.992;2023-06-14T02:15:20;101146.56;;;13.60;57.50
69247;BME280;56358;56.328;43.992;2023-06-14T02:17:22;101146.06;;;13.78;56.12
69247;BME280;56358;56.328;43.992;2023-06-14T02:19:23;101149.09;;;13.96;52.25
69247;BME280;56358;56.328;43.992;2023-06-14T02:21:24;101155.31;;;14.19;52.04
69247;BME280;56358;56.328;43.992;2023-06-14T02:23:25;101157.66;;;14.45;51.97
69247;BME280;56358;56.328;43.992;2023-06-14T02:25:25;101157.59;;;14.67;51.95
69247;BME280;56358;56.328;43.992;2023-06-14T02:27:28;101173.22;;;14.85;53.24
69247;BME280;56358;56.328;43.992;2023-06-14T02:29:29;101163.34;;;14.95;54.36
69247;BME280;56358;56.328;43.992;2023-06-14T02:31:29;101152.75;;;15.03;54.42
69247;BME280;56358;56.328;43.992;2023-06-14T02:33:30;101158.63;;;15.08;53.76
69247;BME280;56358;56.328;43.992;2023-06-14T02:35:31;101167.19;;;15.14;52.85
69247;BME280;56358;56.328;43.992;2023-06-14T02:37:31;101164.91;;;15.19;51.95
69247;BME280;56358;56.328;43.992;2023-06-14T02:39:32;101132.00;;;15.04;52.36
69247;BME280;56358;56.328;43.992;2023-06-14T02:41:33;101175.94;;;15.27;52.03
69247;BME280;56358;56.328;43.992;2023-06-14T02:43:34;101170.25;;;15.30;52.84
69247;BME280;56358;56.328;43.992;2023-06-14T02:45:35;101163.00;;;15.31;53.30
69247;BME280;56358;56.328;43.992;2023-06-14T02:47:36;101165.44;;;15.34;53.99
69247;BME280;56358;56.328;43.992;2023-06-14T02:49:36;101140.59;;;15.19;55.24
69247;BME280;56358;56.328;43.992;2023-06-14T02:51:37;101145.91;;;15.20;55.23
69247;BME280;56358;56.328;43.992;2023-06-14T02:53:38;101163.59;;;15.34;55.04
69247;BME280;56358;56.328;43.992;2023-06-14T02:55:38;101165.03;;;15.38;52.72
69247;BME280;56358;56.328;43.992;2023-06-14T02:57:40;101156.25;;;15.46;52.66
69247;BME280;56358;56.328;43.992;2023-06-14T02:59:41;101162.81;;;15.53;52.28
69247;BME280;56358;56.328;43.992;2023-06-14T03:01:41;101159.59;;;15.59;51.25
69247;BME280;56358;56.328;43.992;2023-06-14T03:03:42;101159.03;;;15.66;49.32
69247;BME280;56358;56.328;43.992;2023-06-14T03:05:45;101169.31;;;15.72;47.63
69247;BME280;56358;56.328;43.992;2023-06-14T03:07:48;101160.41;;;15.81;46.53
69247;BME280;56358;56.328;43.992;2023-06-14T03:09:50;101134.16;;;15.72;45.95
69247;BME280;56358;56.328;43.992;2023-06-14T03:11:51;101150.94;;;15.97;46.18
69247;BME280;56358;56.328;43.992;2023-06-14T03:13:52;101151.34;;;16.02;46.38
69247;BME280;56358;56.328;43.992;2023-06-14T03:15:53;101151.94;;;16.05;45.28
69247;BME280;56358;56.328;43.992;2023-06-14T03:17:56;101153.06;;;16.13;45.16
69247;BME280;56358;56.328;43.992;2023-06-14T03:20:00;101152.38;;;16.20;44.82
69247;BME280;56358;56.328;43.992;2023-06-14T03:22:00;101147.56;;;16.24;44.47
69247;BME280;56358;56.328;43.992;2023-06-14T03:24:03;101149.97;;;16.27;44.72
69247;BME280;56358;56.328;43.992;2023-06-14T03:26:03;101156.25;;;16.28;45.58
69247;BME280;56358;56.328;43.992;2023-06-14T03:28:05;101109.09;;;16.01;47.45
69247;BME280;56358;56.328;43.992;2023-06-14T03:30:06;101135.31;;;16.20;48.63
69247;BME280;56358;56.328;43.992;2023-06-14T03:32:08;101113.47;;;16.02;49.91
69247;BME280;56358;56.328;43.992;2023-06-14T03:34:09;101133.28;;;16.12;50.45
69247;BME280;56358;56.328;43.992;2023-06-14T03:36:10;101112.19;;;15.96;50.76
69247;BME280;56358;56.328;43.992;2023-06-14T03:38:11;101146.13;;;16.10;51.38
69247;BME280;56358;56.328;43.992;2023-06-14T03:40:14;101101.66;;;15.83;50.44
69247;BME280;56358;56.328;43.992;2023-06-14T03:42:15;101136.69;;;15.95;49.71
69247;BME280;56358;56.328;43.992;2023-06-14T03:44:18;101144.50;;;15.88;49.99
69247;BME280;56358;56.328;43.992;2023-06-14T03:46:19;101152.59;;;15.88;49.63
69247;BME280;56358;56.328;43.992;2023-06-14T03:48:19;101110.50;;;15.64;50.01
69247;BME280;56358;56.328;43.992;2023-06-14T03:50:20;101137.81;;;15.92;50.77
69247;BME280;56358;56.328;43.992;2023-06-14T03:52:21;101133.53;;;15.99;50.87
69247;BME280;56358;56.328;43.992;2023-06-14T03:54:23;101124.88;;;16.15;50.34
69247;BME280;56358;56.328;43.992;2023-06-14T03:56:24;101120.94;;;16.29;49.28
69247;BME280;56358;56.328;43.992;2023-06-14T03:58:25;101100.13;;;16.30;48.54
69247;BME280;56358;56.328;43.992;2023-06-14T04:00:26;101123.78;;;16.57;46.34
69247;BME280;56358;56.328;43.992;2023-06-14T04:02:27;101130.16;;;16.75;46.21
69247;BME280;56358;56.328;43.992;2023-06-14T04:04:29;101130.59;;;16.81;43.94
69247;BME280;56358;56.328;43.992;2023-06-14T04:06:29;101137.56;;;16.83;42.84
69247;BME280;56358;56.328;43.992;2023-06-14T04:08:34;101134.44;;;16.88;42.57
69247;BME280;56358;56.328;43.992;2023-06-14T04:10:35;101127.16;;;16.88;41.73
69247;BME280;56358;56.328;43.992;2023-06-14T04:12:36;101137.47;;;16.95;41.84
69247;BME280;56358;56.328;43.992;2023-06-14T04:14:37;101114.78;;;16.76;41.84
69247;BME280;56358;56.328;43.992;2023-06-14T04:16:37;101102.97;;;16.77;41.76
69247;BME280;56358;56.328;43.992;2023-06-14T04:18:38;101140.88;;;16.97;41.53
69247;BME280;56358;56.328;43.992;2023-06-14T04:20:39;101134.34;;;16.89;40.52
69247;BME280;56358;56.328;43.992;2023-06-14T04:22:41;101127.75;;;16.82;41.20
69247;BME280;56358;56.328;43.992;2023-06-14T04:24:43;101141.47;;;16.90;41.65
69247;BME280;56358;56.328;43.992;2023-06-14T04:26:45;101135.59;;;16.85;41.86
69247;BME280;56358;56.328;43.992;2023-06-14T04:28:48;101143.28;;;16.80;42.08
69247;BME280;56358;56.328;43.992;2023-06-14T04:30:49;101135.84;;;16.82;42.06
69247;BME280;56358;56.328;43.992;2023-06-14T04:32:50;101148.09;;;16.86;42.72
69247;BME280;56358;56.328;43.992;2023-06-14T04:34:54;101116.91;;;16.82;42.71
69247;BME280;56358;56.328;43.992;2023-06-14T04:36:58;101133.72;;;16.96;42.51
69247;BME280;56358;56.328;43.992;2023-06-14T04:39:03;101139.16;;;17.05;42.11
69247;BME280;56358;56.328;43.992;2023-06-14T04:41:04;101130.72;;;17.08;42.26
69247;BME280;56358;56.328;43.992;2023-06-14T04:43:05;101130.28;;;17.13;42.35
69247;BME280;56358;56.328;43.992;2023-06-14T04:45:07;101123.31;;;17.11;42.06
69247;BME280;56358;56.328;43.992;2023-06-14T04:47:08;101137.66;;;17.21;42.10
69247;BME280;56358;56.328;43.992;2023-06-14T04:49:09;101138.09;;;17.26;42.24
69247;BME280;56358;56.328;43.992;2023-06-14T04:51:10;101125.53;;;17.35;42.43
69247;BME280;56358;56.328;43.992;2023-06-14T04:53:11;101116.66;;;17.33;42.75
69247;BME280;56358;56.328;43.992;2023-06-14T04:55:12;101128.19;;;17.45;42.35
69247;BME280;56358;56.328;43.992;2023-06-14T04:57:14;101092.28;;;17.33;42.10
69247;BME280;56358;56.328;43.992;2023-06-14T04:59:17;101134.69;;;17.62;41.51
69247;BME280;56358;56.328;43.992;2023-06-14T05:01:19;101116.09;;;17.67;41.38
69247;BME280;56358;56.328;43.992;2023-06-14T05:03:22;101126.81;;;17.68;41.28
69247;BME280;56358;56.328;43.992;2023-06-14T05:05:24;101104.66;;;17.73;40.92
69247;BME280;56358;56.328;43.992;2023-06-14T05:07:25;101063.78;;;17.56;40.57
69247;BME280;56358;56.328;43.992;2023-06-14T05:09:26;101122.00;;;18.08;40.91
69247;BME280;56358;56.328;43.992;2023-06-14T05:11:26;101063.63;;;17.86;40.89
69247;BME280;56358;56.328;43.992;2023-06-14T05:13:27;101123.69;;;18.37;41.08
69247;BME280;56358;56.328;43.992;2023-06-14T05:15:28;101122.75;;;18.46;41.29
69247;BME280;56358;56.328;43.992;2023-06-14T05:17:29;101109.47;;;18.43;42.87
69247;BME280;56358;56.328;43.992;2023-06-14T05:19:30;101126.44;;;18.63;43.11
69247;BME280;56358;56.328;43.992;2023-06-14T05:21:31;101104.34;;;18.58;43.38
69247;BME280;56358;56.328;43.992;2023-06-14T05:23:35;101065.66;;;18.38;43.34
69247;BME280;56358;56.328;43.992;2023-06-14T05:25:36;101130.69;;;18.84;42.67
69247;BME280;56358;56.328;43.992;2023-06-14T05:27:36;101122.47;;;18.93;42.42
69247;BME280;56358;56.328;43.992;2023-06-14T05:29:37;101121.69;;;19.01;42.43
69247;BME280;56358;56.328;43.992;2023-06-14T05:31:38;101123.59;;;19.09;41.60
69247;BME280;56358;56.328;43.992;2023-06-14T05:33:39;101125.50;;;19.17;41.69
69247;BME280;56358;56.328;43.992;2023-06-14T05:35:39;101120.78;;;19.19;41.68
69247;BME280;56358;56.328;43.992;2023-06-14T05:37:40;101115.72;;;19.24;42.02
69247;BME280;56358;56.328;43.992;2023-06-14T05:39:41;101122.84;;;19.25;41.36
69247;BME280;56358;56.328;43.992;2023-06-14T05:41:41;101121.34;;;19.31;41.20
69247;BME280;56358;56.328;43.992;2023-06-14T05:43:42;101103.97;;;19.23;41.63
69247;BME280;56358;56.328;43.992;2023-06-14T05:45:43;101120.00;;;19.35;41.47
69247;BME280;56358;56.328;43.992;2023-06-14T05:47:44;101109.69;;;19.38;41.38
69247;BME280;56358;56.328;43.992;2023-06-14T05:49:45;101115.50;;;19.52;41.31
69247;BME280;56358;56.328;43.992;2023-06-14T05:51:45;101115.38;;;19.62;40.94
69247;BME280;56358;56.328;43.992;2023-06-14T05:53:47;101117.13;;;19.71;40.96
69247;BME280;56358;56.328;43.992;2023-06-14T05:55:50;101114.81;;;19.84;40.57
69247;BME280;56358;56.328;43.992;2023-06-14T05:57:53;101107.69;;;19.91;39.99
69247;BME280;56358;56.328;43.992;2023-06-14T05:59:54;101111.47;;;19.99;39.83
69247;BME280;56358;56.328;43.992;2023-06-14T06:01:55;101108.38;;;19.93;39.85
69247;BME280;56358;56.328;43.992;2023-06-14T06:03:56;101071.97;;;19.86;39.43
69247;BME280;56358;56.328;43.992;2023-06-14T06:05:57;101107.88;;;20.06;39.55
69247;BME280;56358;56.328;43.992;2023-06-14T06:07:58;101112.31;;;20.07;39.13
69247;BME280;56358;56.328;43.992;2023-06-14T06:09:58;101050.69;;;19.82;38.83
69247;BME280;56358;56.328;43.992;2023-06-14T06:11:59;101100.59;;;20.15;38.54
69247;BME280;56358;56.328;43.992;2023-06-14T06:14:00;101109.13;;;20.29;37.85
69247;BME280;56358;56.328;43.992;2023-06-14T06:16:02;101112.38;;;20.40;37.61
69247;BME280;56358;56.328;43.992;2023-06-14T06:18:03;101107.78;;;20.49;37.41
69247;BME280;56358;56.328;43.992;2023-06-14T06:20:05;101107.63;;;20.59;37.31
69247;BME280;56358;56.328;43.992;2023-06-14T06:22:08;101080.38;;;20.51;37.18
69247;BME280;56358;56.328;43.992;2023-06-14T06:24:09;101112.56;;;20.80;36.95
69247;BME280;56358;56.328;43.992;2023-06-14T06:26:10;101083.47;;;20.72;36.41
69247;BME280;56358;56.328;43.992;2023-06-14T06:28:10;101114.25;;;20.98;35.29
69247;BME280;56358;56.328;43.992;2023-06-14T06:30:11;101104.00;;;21.16;34.77
69247;BME280;56358;56.328;43.992;2023-06-14T06:32:12;101106.69;;;21.33;34.47
69247;BME280;56358;56.328;43.992;2023-06-14T06:34:13;101113.59;;;21.52;33.88
69247;BME280;56358;56.328;43.992;2023-06-14T06:36:14;101121.94;;;21.67;33.40
69247;BME280;56358;56.328;43.992;2023-06-14T06:38:15;101108.56;;;21.80;32.53
69247;BME280;56358;56.328;43.992;2023-06-14T06:40:16;101106.28;;;21.92;32.43
69247;BME280;56358;56.328;43.992;2023-06-14T06:42:17;101111.31;;;22.03;32.67
69247;BME280;56358;56.328;43.992;2023-06-14T06:44:17;101115.41;;;22.07;32.34
69247;BME280;56358;56.328;43.992;2023-06-14T06:46:18;101112.63;;;22.16;31.13
69247;BME280;56358;56.328;43.992;2023-06-14T06:48:20;101084.22;;;22.02;31.60
69247;BME280;56358;56.328;43.992;2023-06-14T06:50:20;101109.09;;;22.30;31.40
69247;BME280;56358;56.328;43.992;2023-06-14T06:52:23;101102.81;;;22.30;31.06
69247;BME280;56358;56.328;43.992;2023-06-14T06:54:24;101093.66;;;22.22;30.07
69247;BME280;56358;56.328;43.992;2023-06-14T06:56:25;101100.91;;;22.38;30.27
69247;BME280;56358;56.328;43.992;2023-06-14T06:58:26;101097.25;;;22.46;29.62
69247;BME280;56358;56.328;43.992;2023-06-14T07:00:27;101099.06;;;22.54;29.13
69247;BME280;56358;56.328;43.992;2023-06-14T07:02:28;101093.97;;;22.51;28.02
69247;BME280;56358;56.328;43.992;2023-06-14T07:04:29;101090.03;;;22.53;28.24
69247;BME280;56358;56.328;43.992;2023-06-14T07:06:30;101091.44;;;22.49;27.87
69247;BME280;56358;56.328;43.992;2023-06-14T07:08:30;101072.91;;;22.36;27.63
69247;BME280;56358;56.328;43.992;2023-06-14T07:10:31;101091.44;;;22.49;27.53
69247;BME280;56358;56.328;43.992;2023-06-14T07:12:32;101087.28;;;22.53;27.67
69247;BME280;56358;56.328;43.992;2023-06-14T07:14:34;101086.22;;;22.54;26.88
69247;BME280;56358;56.328;43.992;2023-06-14T07:16:35;101102.28;;;22.57;26.38
69247;BME280;56358;56.328;43.992;2023-06-14T07:18:36;101077.00;;;22.55;26.38
69247;BME280;56358;56.328;43.992;2023-06-14T07:20:37;101076.78;;;22.42;26.15
69247;BME280;56358;56.328;43.992;2023-06-14T07:22:42;101079.63;;;22.49;26.08
69247;BME280;56358;56.328;43.992;2023-06-14T07:24:43;101023.06;;;22.11;25.94
69247;BME280;56358;56.328;43.992;2023-06-14T07:26:44;101089.22;;;22.45;25.07
69247;BME280;56358;56.328;43.992;2023-06-14T07:28:46;101079.81;;;22.47;25.57
69247;BME280;56358;56.328;43.992;2023-06-14T07:30:47;101093.09;;;22.50;25.91
69247;BME280;56358;56.328;43.992;2023-06-14T07:32:48;101083.22;;;22.49;25.68
69247;BME280;56358;56.328;43.992;2023-06-14T07:34:50;101074.84;;;22.51;26.11
69247;BME280;56358;56.328;43.992;2023-06-14T07:36:51;101082.47;;;22.55;26.14
69247;BME280;56358;56.328;43.992;2023-06-14T07:38:51;101082.47;;;22.55;26.27
69247;BME280;56358;56.328;43.992;2023-06-14T07:40:52;101083.47;;;22.63;25.49
69247;BME280;56358;56.328;43.992;2023-06-14T07:42:53;101080.78;;;22.54;24.78
69247;BME280;56358;56.328;43.992;2023-06-14T07:44:55;101076.09;;;22.63;25.45
69247;BME280;56358;56.328;43.992;2023-06-14T07:46:56;101026.47;;;22.36;25.41
69247;BME280;56358;56.328;43.992;2023-06-14T07:48:58;101062.44;;;22.63;24.00
69247;BME280;56358;56.328;43.992;2023-06-14T07:50:59;101087.16;;;22.85;24.01
69247;BME280;56358;56.328;43.992;2023-06-14T07:53:01;101095.47;;;22.91;24.73
69247;BME280;56358;56.328;43.992;2023-06-14T07:55:02;101084.16;;;22.94;24.41
69247;BME280;56358;56.328;43.992;2023-06-14T07:57:05;101042.28;;;22.64;24.33
69247;BME280;56358;56.328;43.992;2023-06-14T07:59:06;101098.13;;;23.00;23.98
69247;BME280;56358;56.328;43.992;2023-06-14T08:01:08;101081.41;;;22.94;23.91
69247;BME280;56358;56.328;43.992;2023-06-14T08:03:09;101089.47;;;23.11;24.68
69247;BME280;56358;56.328;43.992;2023-06-14T08:05:10;101088.97;;;23.07;23.78
69247;BME280;56358;56.328;43.992;2023-06-14T08:07:12;101089.38;;;23.04;23.87
69247;BME280;56358;56.328;43.992;2023-06-14T08:09:13;101054.47;;;22.91;24.06
69247;BME280;56358;56.328;43.992;2023-06-14T08:11:13;101087.41;;;23.13;24.03
69247;BME280;56358;56.328;43.992;2023-06-14T08:13:14;101092.13;;;23.19;23.71
69247;BME280;56358;56.328;43.992;2023-06-14T08:15:16;101090.25;;;23.20;23.69
69247;BME280;56358;56.328;43.992;2023-06-14T08:17:17;101085.44;;;23.22;23.49
69247;BME280;56358;56.328;43.992;2023-06-14T08:19:17;101077.88;;;23.24;23.89
69247;BME280;56358;56.328;43.992;2023-06-14T08:21:18;101054.69;;;23.20;23.01
69247;BME280;56358;56.328;43.992;2023-06-14T08:23:19;101093.25;;;23.40;22.94
69247;BME280;56358;56.328;43.992;2023-06-14T08:25:21;101081.38;;;23.48;22.94
69247;BME280;56358;56.328;43.992;2023-06-14T08:27:22;101080.56;;;23.32;23.10
69247;BME280;56358;56.328;43.992;2023-06-14T08:29:23;101081.56;;;23.31;23.02
69247;BME280;56358;56.328;43.992;2023-06-14T08:31:24;101079.50;;;23.33;22.98
69247;BME280;56358;56.328;43.992;2023-06-14T08:33:25;101079.28;;;23.35;23.31
69247;BME280;56358;56.328;43.992;2023-06-14T08:35:26;101081.97;;;23.43;23.50
69247;BME280;56358;56.328;43.992;2023-06-14T08:37:27;101068.53;;;23.48;23.10
69247;BME280;56358;56.328;43.992;2023-06-14T08:39:28;101074.28;;;23.53;23.23
69247;BME280;56358;56.328;43.992;2023-06-14T08:41:29;101031.19;;;23.40;23.54
69247;BME280;56358;56.328;43.992;2023-06-14T08:43:30;101083.53;;;23.67;23.38
69247;BME280;56358;56.328;43.992;2023-06-14T08:45:31;101064.72;;;23.79;22.91
69247;BME280;56358;56.328;43.992;2023-06-14T08:47:32;101063.19;;;23.91;22.72
69247;BME280;56358;56.328;43.992;2023-06-14T08:49:38;101068.16;;;24.03;22.53
69247;BME280;56358;56.328;43.992;2023-06-14T08:51:39;101073.50;;;24.11;22.72
69247;BME280;56358;56.328;43.992;2023-06-14T08:53:41;101066.78;;;24.14;22.35
69247;BME280;56358;56.328;43.992;2023-06-14T08:55:43;101055.31;;;24.03;22.49
69247;BME280;56358;56.328;43.992;2023-06-14T08:57:44;101043.84;;;23.93;22.51
69247;BME280;56358;56.328;43.992;2023-06-14T08:59:47;101056.75;;;23.84;22.66
69247;BME280;56358;56.328;43.992;2023-06-14T09:01:53;101055.88;;;23.62;23.05
69247;BME280;56358;56.328;43.992;2023-06-14T09:03:55;101055.59;;;23.57;23.02
69247;BME280;56358;56.328;43.992;2023-06-14T09:05:57;101050.72;;;23.52;23.48
69247;BME280;56358;56.328;43.992;2023-06-14T09:08:02;101045.50;;;23.57;24.04
69247;BME280;56358;56.328;43.992;2023-06-14T09:10:13;101048.91;;;23.59;23.87
69247;BME280;56358;56.328;43.992;2023-06-14T09:12:15;101048.31;;;23.64;24.13
69247;BME280;56358;56.328;43.992;2023-06-14T09:14:18;101037.63;;;23.69;25.08
69247;BME280;56358;56.328;43.992;2023-06-14T09:16:19;101042.63;;;23.81;25.01
69247;BME280;56358;56.328;43.992;2023-06-14T09:18:20;101036.13;;;23.82;24.78
69247;BME280;56358;56.328;43.992;2023-06-14T09:20:24;101022.06;;;23.70;24.88
69247;BME280;56358;56.328;43.992;2023-06-14T09:22:25;101045.13;;;23.97;24.86
69247;BME280;56358;56.328;43.992;2023-06-14T09:24:26;101037.06;;;24.10;25.01
69247;BME280;56358;56.328;43.992;2023-06-14T09:26:27;101037.03;;;24.32;24.54
69247;BME280;56358;56.328;43.992;2023-06-14T09:28:28;101031.56;;;24.60;24.02
69247;BME280;56358;56.328;43.992;2023-06-14T09:30:29;101047.53;;;24.72;24.33
69247;BME280;56358;56.328;43.992;2023-06-14T09:32:30;101032.00;;;24.86;24.60
69247;BME280;56358;56.328;43.992;2023-06-14T09:34:33;101034.03;;;25.05;24.84
69247;BME280;56358;56.328;43.992;2023-06-14T09:36:36;101026.69;;;25.13;23.11
69247;BME280;56358;56.328;43.992;2023-06-14T09:38:40;100991.47;;;25.16;22.57
69247;BME280;56358;56.328;43.992;2023-06-14T09:40:41;101026.66;;;25.48;22.65
69247;BME280;56358;56.328;43.992;2023-06-14T09:42:42;101022.31;;;25.32;22.39
69247;BME280;56358;56.328;43.992;2023-06-14T09:44:48;101022.41;;;25.03;22.78
69247;BME280;56358;56.328;43.992;2023-06-14T09:46:53;101020.41;;;24.84;23.83
69247;BME280;56358;56.328;43.992;2023-06-14T09:48:59;101010.63;;;24.74;24.05
69247;BME280;56358;56.328;43.992;2023-06-14T09:51:01;101012.16;;;24.55;24.09
69247;BME280;56358;56.328;43.992;2023-06-14T09:53:07;101014.75;;;24.35;24.38
69247;BME280;56358;56.328;43.992;2023-06-14T09:55:15;100997.81;;;24.03;24.25
69247;BME280;56358;56.328;43.992;2023-06-14T09:57:20;101011.63;;;23.95;24.19
69247;BME280;56358;56.328;43.992;2023-06-14T09:59:30;101018.53;;;23.76;24.71
69247;BME280;56358;56.328;43.992;2023-06-14T10:01:32;101017.75;;;23.60;25.23
69247;BME280;56358;56.328;43.992;2023-06-14T10:03:34;100972.34;;;23.30;25.20
69247;BME280;56358;56.328;43.992;2023-06-14T10:05:36;101009.41;;;23.47;24.88
69247;BME280;56358;56.328;43.992;2023-06-14T10:07:56;101014.13;;;23.75;24.67
69247;BME280;56358;56.328;43.992;2023-06-14T10:10:01;101009.09;;;24.15;24.17
69247;BME280;56358;56.328;43.992;2023-06-14T10:12:05;100986.88;;;24.32;23.77
69247;BME280;56358;56.328;43.992;2023-06-14T10:14:06;101011.66;;;24.45;24.35
69247;BME280;56358;56.328;43.992;2023-06-14T10:16:24;101005.31;;;24.44;24.28
69247;BME280;56358;56.328;43.992;2023-06-14T10:18:32;101004.91;;;24.69;24.04
69247;BME280;56358;56.328;43.992;2023-06-14T10:23:13;100986.41;;;25.68;22.95
69247;BME280;56358;56.328;43.992;2023-06-14T10:25:27;100995.16;;;26.19;21.75
69247;BME280;56358;56.328;43.992;2023-06-14T10:27:29;100985.59;;;26.68;21.36
69247;BME280;56358;56.328;43.992;2023-06-14T10:29:31;100967.66;;;27.31;20.86
69247;BME280;56358;56.328;43.992;2023-06-14T10:31:45;100978.22;;;27.80;19.81
69247;BME280;56358;56.328;43.992;2023-06-14T10:33:58;100976.25;;;27.87;20.08
69247;BME280;56358;56.328;43.992;2023-06-14T10:36:09;100978.06;;;27.74;20.01
69247;BME280;56358;56.328;43.992;2023-06-14T10:38:11;100958.63;;;27.63;20.23
69247;BME280;56358;56.328;43.992;2023-06-14T10:40:30;100970.06;;;28.49;19.32